^^

Weather Underground History

Daily Summary for July 6, 2019 Units:  Metric    English   Both
Daily Weekly Monthly Yearly Custom
  High: Low: Average:
Temperature: 15.3 °C 9.8 °C 11.5 °C
Dew Point: 11.9 °C 8.7 °C 10.2 °C
Humidity: 95% 76.3% 92%
Wind Speed: 25.6km/h 0.5km/h 10.9km/h
Wind Gust: 37km/h - -
Wind- - SW
Pressure: 1011.0 hPa 1005.8 hPa -
Precipitation: 9.9 mm    
Historical Graphs
 
 
Tabular Data for July 6, 2019
Time Temperature Dew Point Pressure Wind Wind Speed Wind Gust Humidity Rainfall Rate (Hourly) solar
00:04 10 °C 8.8 °C 1011.0 hPa ESE 15.7 km/h 22.5 km/h 92.3% 2.0 mm 0 W/m2
00:09 10 °C 8.7 °C 1010.9 hPa ESE 13.2 km/h 20.9 km/h 92% 3.6 mm 0 W/m2
00:14 9.9 °C 8.7 °C 1010.9 hPa ESE 11.8 km/h 17.7 km/h 92% 3.3 mm 0 W/m2
00:19 9.9 °C 8.7 °C 1010.8 hPa ESE 13.4 km/h 20.9 km/h 92% 3.8 mm 0 W/m2
00:24 9.9 °C 8.7 °C 1010.8 hPa ESE 15.8 km/h 20.9 km/h 92% 7.1 mm 0 W/m2
00:29 9.9 °C 8.7 °C 1010.8 hPa ESE 13.9 km/h 22.5 km/h 92% 7.1 mm 0 W/m2
00:34 9.9 °C 8.8 °C 1010.8 hPa ESE 14.9 km/h 24.1 km/h 92.7% 5.1 mm 0 W/m2
00:39 9.9 °C 8.8 °C 1010.7 hPa ESE 14.6 km/h 22.5 km/h 92.7% 3.8 mm 0 W/m2
00:44 9.9 °C 8.8 °C 1010.6 hPa ESE 14.9 km/h 22.5 km/h 93% 4.8 mm 0 W/m2
00:49 9.9 °C 8.8 °C 1010.6 hPa ESE 17.8 km/h 29 km/h 93% 4.8 mm 0 W/m2
00:54 9.9 °C 8.8 °C 1010.4 hPa ESE 18.1 km/h 25.7 km/h 93% 7.9 mm 0 W/m2
00:59 9.9 °C 8.8 °C 1010.4 hPa ESE 17.2 km/h 24.1 km/h 93% 11.2 mm 0 W/m2
01:04 9.9 °C 8.8 °C 1010.2 hPa ESE 19.3 km/h 29 km/h 93% 11.2 mm 0 W/m2
01:09 9.9 °C 8.8 °C 1010.1 hPa ESE 19.1 km/h 29 km/h 93% 7.1 mm 0 W/m2
01:14 9.8 °C 8.8 °C 1010.0 hPa ESE 18 km/h 27.4 km/h 93% 7.1 mm 0 W/m2
01:19 9.8 °C 8.8 °C 1009.9 hPa ESE 17.4 km/h 27.4 km/h 93% 9.1 mm 0 W/m2
01:24 9.8 °C 8.8 °C 1009.9 hPa ESE 16.7 km/h 25.7 km/h 93% 7.1 mm 0 W/m2
01:29 9.8 °C 8.8 °C 1009.8 hPa ESE 16.5 km/h 22.5 km/h 93.2% 7.9 mm 0 W/m2
01:34 9.8 °C 8.9 °C 1009.6 hPa ESE 17.1 km/h 24.1 km/h 93.9% 7.4 mm 0 W/m2
01:39 9.8 °C 8.9 °C 1009.5 hPa ESE 19.8 km/h 30.6 km/h 94% 6.6 mm 0 W/m2
01:44 9.8 °C 8.9 °C 1009.2 hPa ESE 20.9 km/h 29 km/h 94% 4.8 mm 0 W/m2
01:49 9.8 °C 8.9 °C 1009.0 hPa ESE 21.4 km/h 30.6 km/h 94% 2.3 mm 0 W/m2
01:54 9.8 °C 8.9 °C 1008.6 hPa ESE 25.6 km/h 37 km/h 94% 2.5 mm 0 W/m2
01:59 9.8 °C 8.9 °C 1008.4 hPa ESE 22.8 km/h 37 km/h 94% 2.5 mm 0 W/m2
02:04 9.8 °C 8.9 °C 1008.4 hPa ESE 22.6 km/h 37 km/h 94% 1.5 mm 0 W/m2
02:09 9.8 °C 8.9 °C 1008.1 hPa ESE 23.7 km/h 37 km/h 94% 1.5 mm 0 W/m2
02:14 9.8 °C 8.9 °C 1008.0 hPa ESE 20.8 km/h 33.8 km/h 94% 1.5 mm 0 W/m2
02:19 9.9 °C 8.9 °C 1008.0 hPa ESE 16.8 km/h 32.2 km/h 94% 0.8 mm 0 W/m2
02:21 9.9 °C 9 °C 1008.0 hPa ESE 17.6 km/h 29 km/h 94% 0.0 mm 0 W/m2
02:34 9.9 °C 9 °C 1007.9 hPa SE 14.2 km/h 24.1 km/h 94% 0.0 mm 0 W/m2
02:39 9.9 °C 9 °C 1007.9 hPa ESE 18.2 km/h 32.2 km/h 94% 0.0 mm 0 W/m2
02:44 10 °C 9.1 °C 1007.8 hPa ESE 19.5 km/h 30.6 km/h 94% 0.0 mm 0 W/m2
02:49 10 °C 9.1 °C 1007.7 hPa ESE 15.7 km/h 30.6 km/h 94% 0.0 mm 0 W/m2
02:54 10 °C 9.1 °C 1007.6 hPa SE 14.1 km/h 25.7 km/h 94% 0.0 mm 0 W/m2
02:59 10.1 °C 9.1 °C 1007.5 hPa ESE 15.3 km/h 27.4 km/h 94% 0.0 mm 0 W/m2
03:04 10.1 °C 9.1 °C 1007.5 hPa SE 13.1 km/h 29 km/h 94% 1.3 mm 0 W/m2
03:09 10.1 °C 9.2 °C 1007.4 hPa SE 14.4 km/h 29 km/h 94% 3.8 mm 0 W/m2
03:14 10.1 °C 9.2 °C 1007.3 hPa SE 11.6 km/h 22.5 km/h 94% 4.8 mm 0 W/m2
03:19 10.1 °C 9.2 °C 1007.2 hPa SE 15.7 km/h 25.7 km/h 94% 4.8 mm 0 W/m2
03:24 10.2 °C 9.2 °C 1006.9 hPa SE 14 km/h 22.5 km/h 94% 4.1 mm 0 W/m2
03:29 10.2 °C 9.3 °C 1006.9 hPa SE 16.4 km/h 29 km/h 94.1% 4.8 mm 0 W/m2
03:34 10.2 °C 9.4 °C 1006.9 hPa SSE 14.7 km/h 27.4 km/h 95% 4.8 mm 0 W/m2
03:39 10.2 °C 9.4 °C 1006.9 hPa SE 13.7 km/h 24.1 km/h 95% 2.3 mm 0 W/m2
03:44 10.2 °C 9.5 °C 1006.8 hPa SE 14.9 km/h 29 km/h 95% 2.3 mm 0 W/m2
03:49 10.2 °C 9.5 °C 1006.7 hPa SE 15.1 km/h 29 km/h 95% 2.3 mm 0 W/m2
03:54 10.2 °C 9.5 °C 1006.7 hPa SE 13.3 km/h 27.4 km/h 95% 1.5 mm 0 W/m2
03:59 10.2 °C 9.5 °C 1006.5 hPa SE 15 km/h 25.7 km/h 95% 1.5 mm 0 W/m2
04:04 10.2 °C 9.5 °C 1006.5 hPa SE 13.2 km/h 22.5 km/h 95% 1.0 mm 0 W/m2
04:09 10.2 °C 9.5 °C 1006.5 hPa SE 13.1 km/h 22.5 km/h 95% 0.8 mm 0 W/m2
04:14 10.2 °C 9.5 °C 1006.4 hPa SSE 15.9 km/h 27.4 km/h 95% 0.0 mm 0 W/m2
04:19 10.2 °C 9.5 °C 1006.4 hPa SE 12 km/h 20.9 km/h 95% 0.0 mm 0 W/m2
04:24 10.2 °C 9.5 °C 1006.3 hPa SSE 12.5 km/h 22.5 km/h 95% 0.0 mm 0 W/m2
04:29 10.2 °C 9.5 °C 1006.3 hPa SE 12.8 km/h 20.9 km/h 95% 4.3 mm 0 W/m2
04:34 10.2 °C 9.4 °C 1006.2 hPa SE 12.8 km/h 20.9 km/h 95% 4.3 mm 0 W/m2
04:39 10.2 °C 9.5 °C 1006.1 hPa SSE 12.5 km/h 20.9 km/h 95% 1.5 mm 0 W/m2
04:44 10.2 °C 9.5 °C 1006.2 hPa South 8.9 km/h 19.3 km/h 95% 1.0 mm 0 W/m2
04:49 10.2 °C 9.5 °C 1006.2 hPa SSE 10 km/h 19.3 km/h 95% 0.0 mm 0 W/m2
04:54 10.2 °C 9.5 °C 1006.1 hPa SE 10.8 km/h 19.3 km/h 95% 0.0 mm 0 W/m2
04:59 10.3 °C 9.5 °C 1006.0 hPa SSE 10.6 km/h 19.3 km/h 95% 0.0 mm 0 W/m2
05:04 10.3 °C 9.5 °C 1006.1 hPa SSE 9.2 km/h 17.7 km/h 95% 0.0 mm 0 W/m2
05:09 10.3 °C 9.5 °C 1006.1 hPa SSE 10.3 km/h 17.7 km/h 95% 0.0 mm 0 W/m2
05:14 10.4 °C 9.6 °C 1006.0 hPa SSE 11.7 km/h 19.3 km/h 95% 0.0 mm 0 W/m2
05:19 10.4 °C 9.6 °C 1006.0 hPa SSE 8.1 km/h 14.5 km/h 95% 0.0 mm 0 W/m2
05:24 10.4 °C 9.7 °C 1006.0 hPa SSE 8.9 km/h 19.3 km/h 95% 0.0 mm 0 W/m2
05:29 10.5 °C 9.7 °C 1006.0 hPa SSE 11.2 km/h 20.9 km/h 95% 0.0 mm 0 W/m2
05:34 10.5 °C 9.7 °C 1006.0 hPa SSE 8 km/h 20.9 km/h 95% 0.0 mm 0 W/m2
05:39 10.6 °C 9.8 °C 1006.1 hPa South 7.9 km/h 16.1 km/h 95% 0.0 mm 0 W/m2
05:44 10.6 °C 9.8 °C 1006.1 hPa South 8.3 km/h 17.7 km/h 95% 0.0 mm 0 W/m2
05:49 10.6 °C 9.8 °C 1006.1 hPa South 7 km/h 16.1 km/h 95% 0.0 mm 0 W/m2
05:54 10.6 °C 9.9 °C 1006.1 hPa SW 5.3 km/h 12.9 km/h 95% 0.0 mm 0 W/m2
05:59 10.7 °C 9.9 °C 1006.1 hPa SSW 5.4 km/h 11.3 km/h 95% 0.0 mm 0 W/m2
06:04 10.7 °C 9.9 °C 1006.1 hPa SSW 5 km/h 11.3 km/h 95% 0.0 mm 0 W/m2
06:09 10.7 °C 10 °C 1006.2 hPa SSW 4 km/h 9.7 km/h 95% 0.0 mm 0 W/m2
06:14 10.8 °C 10 °C 1006.2 hPa SSW 4.9 km/h 9.7 km/h 95% 0.0 mm 0 W/m2
06:19 10.8 °C 10.1 °C 1006.2 hPa SSW 2.9 km/h 9.7 km/h 95% 0.0 mm 0 W/m2
06:24 10.8 °C 10.1 °C 1006.2 hPa SSW 3 km/h 8 km/h 95% 0.0 mm 0 W/m2
06:29 10.8 °C 10.1 °C 1006.1 hPa SSW 2.3 km/h 4.8 km/h 95% 0.0 mm 0 W/m2
06:34 10.8 °C 10.1 °C 1006.1 hPa SSW 1 km/h 4.8 km/h 95% 0.0 mm 0 W/m2
06:39 10.8 °C 10.1 °C 1006.0 hPa SSW 0.9 km/h 4.8 km/h 95% 0.0 mm 0 W/m2
06:44 10.8 °C 10.1 °C 1006.0 hPa SSW 1.7 km/h 4.8 km/h 95% 0.0 mm 0 W/m2
06:49 10.8 °C 10.1 °C 1006.1 hPa SSW 1.2 km/h 4.8 km/h 95% 0.0 mm 0 W/m2
06:54 10.8 °C 10.1 °C 1006.0 hPa SSW 1.7 km/h 4.8 km/h 95% 0.0 mm 0 W/m2
06:59 10.8 °C 10.1 °C 1006.0 hPa SSW 0.5 km/h 3.2 km/h 95% 0.0 mm 0 W/m2
07:04 10.9 °C 10.1 °C 1005.9 hPa SSW 0.9 km/h 4.8 km/h 95% 0.0 mm 0 W/m2
07:09 10.9 °C 10.1 °C 1005.9 hPa SSW 1.1 km/h 4.8 km/h 95% 0.0 mm 0 W/m2
07:14 11 °C 10.2 °C 1005.9 hPa SSW 5.2 km/h 11.3 km/h 95% 0.0 mm 0 W/m2
07:19 11 °C 10.3 °C 1005.9 hPa WSW 7 km/h 12.9 km/h 95% 0.0 mm 0 W/m2
07:24 11.1 °C 10.4 °C 1005.8 hPa WSW 8 km/h 12.9 km/h 95% 0.0 mm 5 W/m2
07:29 11.2 °C 10.4 °C 1005.9 hPa WSW 7.4 km/h 12.9 km/h 95% 0.0 mm 9 W/m2
07:34 11.2 °C 10.4 °C 1005.9 hPa WSW 5.1 km/h 11.3 km/h 95% 0.0 mm 11 W/m2
07:39 11.2 °C 10.4 °C 1005.9 hPa WSW 4.8 km/h 8 km/h 95% 0.0 mm 14 W/m2
07:44 11.2 °C 10.5 °C 1005.9 hPa WSW 5.1 km/h 9.7 km/h 95% 0.0 mm 18 W/m2
07:49 11.2 °C 10.5 °C 1005.9 hPa WSW 5.6 km/h 9.7 km/h 95% 0.0 mm 23 W/m2
07:54 11.3 °C 10.5 °C 1005.9 hPa West 5.5 km/h 9.7 km/h 95% 0.0 mm 26 W/m2
07:59 11.3 °C 10.5 °C 1005.8 hPa WSW 6.5 km/h 12.9 km/h 95% 0.0 mm 28 W/m2
08:04 11.3 °C 10.6 °C 1005.8 hPa West 6.9 km/h 12.9 km/h 95% 0.0 mm 37 W/m2
08:09 11.4 °C 10.6 °C 1005.8 hPa West 7.2 km/h 16.1 km/h 95% 0.0 mm 40 W/m2
08:14 11.4 °C 10.6 °C 1005.9 hPa West 7.3 km/h 12.9 km/h 95% 0.0 mm 40 W/m2
08:19 11.4 °C 10.7 °C 1005.9 hPa West 6.5 km/h 12.9 km/h 95% 0.0 mm 40 W/m2
08:24 11.4 °C 10.7 °C 1006.0 hPa West 8.2 km/h 14.5 km/h 95% 0.0 mm 39 W/m2
08:29 11.4 °C 10.7 °C 1006.0 hPa West 6.1 km/h 14.5 km/h 95% 0.0 mm 37 W/m2
08:34 11.5 °C 10.7 °C 1006.0 hPa West 6.8 km/h 12.9 km/h 95% 0.0 mm 32 W/m2
08:39 11.5 °C 10.7 °C 1006.0 hPa West 6.9 km/h 12.9 km/h 95% 0.0 mm 42 W/m2
08:44 11.5 °C 10.7 °C 1006.1 hPa West 5.8 km/h 11.3 km/h 95% 0.0 mm 51 W/m2
08:49 11.5 °C 10.8 °C 1006.1 hPa West 5.9 km/h 12.9 km/h 95% 0.0 mm 51 W/m2
08:54 11.6 °C 10.8 °C 1006.1 hPa West 6.7 km/h 12.9 km/h 95% 0.0 mm 47 W/m2
08:59 11.6 °C 10.8 °C 1006.1 hPa West 6.6 km/h 14.5 km/h 95% 0.0 mm 44 W/m2
09:04 11.6 °C 10.8 °C 1006.2 hPa West 5.2 km/h 14.5 km/h 95% 0.0 mm 40 W/m2
09:09 11.6 °C 10.8 °C 1006.3 hPa WNW 5.9 km/h 11.3 km/h 95% 0.0 mm 39 W/m2
09:14 11.6 °C 10.8 °C 1006.4 hPa WNW 4.8 km/h 11.3 km/h 95% 0.0 mm 28 W/m2
09:19 11.7 °C 10.9 °C 1006.5 hPa WNW 5.6 km/h 12.9 km/h 95% 0.0 mm 39 W/m2
09:24 11.7 °C 10.9 °C 1006.5 hPa WNW 5 km/h 12.9 km/h 95% 0.0 mm 44 W/m2
09:29 11.7 °C 10.9 °C 1006.5 hPa WNW 4.7 km/h 9.7 km/h 95% 0.0 mm 60 W/m2
09:34 11.7 °C 11 °C 1006.4 hPa WNW 6.8 km/h 17.7 km/h 95% 0.0 mm 79 W/m2
09:39 11.8 °C 11 °C 1006.4 hPa WNW 9 km/h 20.9 km/h 95% 0.0 mm 81 W/m2
09:44 11.8 °C 11 °C 1006.4 hPa WNW 7.4 km/h 14.5 km/h 95% 0.0 mm 97 W/m2
09:49 11.8 °C 11.1 °C 1006.3 hPa WNW 8.7 km/h 19.3 km/h 95% 0.0 mm 120 W/m2
09:54 11.9 °C 11.1 °C 1006.4 hPa WNW 8 km/h 17.7 km/h 95% 0.0 mm 125 W/m2
09:59 12 °C 11.2 °C 1006.4 hPa WNW 8.1 km/h 17.7 km/h 95% 0.0 mm 139 W/m2
10:04 12 °C 11.2 °C 1006.5 hPa WNW 9 km/h 19.3 km/h 95% 0.0 mm 142 W/m2
10:09 12.1 °C 11.3 °C 1006.6 hPa WNW 9.1 km/h 19.3 km/h 95% 0.0 mm 141 W/m2
10:14 12.2 °C 11.4 °C 1006.7 hPa NW 7.5 km/h 14.5 km/h 95% 0.0 mm 127 W/m2
10:19 12.2 °C 11.4 °C 1006.8 hPa NW 6.2 km/h 14.5 km/h 95% 0.0 mm 116 W/m2
10:24 12.2 °C 11.2 °C 1006.8 hPa NW 8.9 km/h 20.9 km/h 94.2% 0.0 mm 127 W/m2
10:29 12.2 °C 11.3 °C 1006.9 hPa NW 7.1 km/h 16.1 km/h 94% 0.0 mm 146 W/m2
10:34 12.2 °C 11.3 °C 1006.9 hPa NW 9.6 km/h 16.1 km/h 94% 0.0 mm 146 W/m2
10:39 12.3 °C 11.2 °C 1007.0 hPa NW 9 km/h 20.9 km/h 93.5% 0.0 mm 141 W/m2
10:44 12.3 °C 11.2 °C 1007.0 hPa NW 9.8 km/h 22.5 km/h 93% 0.0 mm 134 W/m2
10:49 12.3 °C 11.1 °C 1007.0 hPa NW 8.8 km/h 19.3 km/h 92% 0.0 mm 163 W/m2
10:54 12.3 °C 11.1 °C 1007.0 hPa NW 9.7 km/h 17.7 km/h 92% 0.0 mm 223 W/m2
10:59 12.5 °C 11.1 °C 1007.0 hPa NW 8.2 km/h 17.7 km/h 91.4% 0.0 mm 253 W/m2
11:04 12.6 °C 11.2 °C 1007.0 hPa NW 10.7 km/h 20.9 km/h 91% 0.0 mm 464 W/m2
11:09 12.8 °C 11.4 °C 1006.9 hPa NW 9.5 km/h 16.1 km/h 91% 0.0 mm 485 W/m2
11:14 13.1 °C 11.6 °C 1006.9 hPa WNW 12.7 km/h 25.7 km/h 90.8% 0.0 mm 489 W/m2
11:19 13.3 °C 11.7 °C 1006.9 hPa WNW 11.6 km/h 20.9 km/h 90% 0.0 mm 489 W/m2
11:24 13.5 °C 11.8 °C 1007.0 hPa NW 10 km/h 20.9 km/h 89.5% 0.0 mm 483 W/m2
11:29 13.5 °C 11.6 °C 1007.1 hPa WNW 12.7 km/h 19.3 km/h 88.3% 0.0 mm 483 W/m2
11:34 13.6 °C 11.6 °C 1007.1 hPa NW 11.8 km/h 20.9 km/h 88% 0.0 mm 487 W/m2
11:39 13.6 °C 11.6 °C 1007.1 hPa NW 10.1 km/h 24.1 km/h 87.8% 0.0 mm 487 W/m2
11:44 13.8 °C 11.8 °C 1007.1 hPa NW 10.7 km/h 25.7 km/h 88% 0.0 mm 501 W/m2
11:49 13.9 °C 11.8 °C 1007.1 hPa WNW 11.1 km/h 25.7 km/h 87.1% 0.0 mm 515 W/m2
11:54 14 °C 11.9 °C 1007.0 hPa NW 9.5 km/h 17.7 km/h 87% 0.0 mm 555 W/m2
11:59 14.2 °C 11.9 °C 1006.9 hPa NW 11.9 km/h 22.5 km/h 86.5% 0.0 mm 550 W/m2
12:04 14.2 °C 11.7 °C 1006.9 hPa WNW 11.5 km/h 22.5 km/h 85% 0.0 mm 584 W/m2
12:09 14.2 °C 11.5 °C 1006.9 hPa WNW 14.3 km/h 25.7 km/h 83.9% 0.0 mm 580 W/m2
12:14 14.2 °C 11.5 °C 1007.0 hPa NW 12.3 km/h 29 km/h 83.6% 0.0 mm 587 W/m2
12:19 14.3 °C 11.4 °C 1007.1 hPa NW 12.3 km/h 29 km/h 83.1% 0.0 mm 587 W/m2
12:24 14.3 °C 11.3 °C 1007.1 hPa WNW 14.1 km/h 25.7 km/h 82.3% 0.0 mm 541 W/m2
12:29 14.4 °C 11.3 °C 1007.1 hPa WNW 12.8 km/h 24.1 km/h 82% 0.0 mm 559 W/m2
12:34 14.4 °C 11.3 °C 1007.2 hPa NW 13.2 km/h 24.1 km/h 81.5% 0.0 mm 596 W/m2
12:39 14.5 °C 11.5 °C 1007.2 hPa NW 10.3 km/h 20.9 km/h 82% 0.0 mm 635 W/m2
12:44 14.7 °C 11.5 °C 1007.2 hPa WNW 15.3 km/h 29 km/h 81.1% 0.0 mm 635 W/m2
12:49 14.5 °C 11.2 °C 1007.4 hPa NW 10.4 km/h 29 km/h 80.6% 0.0 mm 636 W/m2
12:54 14.6 °C 11.3 °C 1007.5 hPa NW 11.2 km/h 20.9 km/h 80.8% 0.0 mm 573 W/m2
12:59 14.7 °C 11.6 °C 1007.4 hPa WNW 9.2 km/h 16.1 km/h 81.7% 0.0 mm 561 W/m2
13:04 14.8 °C 11.3 °C 1007.4 hPa NW 12.3 km/h 24.1 km/h 79.7% 0.0 mm 251 W/m2
13:09 14.7 °C 11.3 °C 1007.4 hPa NW 11.1 km/h 24.1 km/h 80.2% 0.0 mm 584 W/m2
13:14 14.8 °C 11.5 °C 1007.6 hPa NW 10.8 km/h 24.1 km/h 80.5% 0.0 mm 571 W/m2
13:19 14.9 °C 11.6 °C 1007.6 hPa WNW 10.7 km/h 24.1 km/h 80.6% 0.0 mm 582 W/m2
13:24 15 °C 11.3 °C 1007.6 hPa NW 12.7 km/h 25.7 km/h 78.4% 0.0 mm 557 W/m2
13:29 15 °C 10.9 °C 1007.6 hPa NW 15.3 km/h 25.7 km/h 76.7% 0.0 mm 526 W/m2
13:34 15 °C 10.9 °C 1007.7 hPa NW 17.6 km/h 30.6 km/h 76.6% 0.0 mm 533 W/m2
13:39 14.9 °C 10.8 °C 1007.8 hPa NW 15 km/h 29 km/h 76.5% 0.0 mm 589 W/m2
13:44 14.9 °C 11 °C 1007.8 hPa NW 11.8 km/h 25.7 km/h 77.3% 0.0 mm 589 W/m2
13:49 15.1 °C 11.4 °C 1007.9 hPa NW 10.8 km/h 22.5 km/h 78.5% 0.0 mm 652 W/m2
13:54 15.3 °C 11.5 °C 1008.0 hPa NW 9.1 km/h 20.9 km/h 77.8% 0.0 mm 575 W/m2
13:59 15.2 °C 11.1 °C 1008.0 hPa NW 12.3 km/h 22.5 km/h 76.3% 0.0 mm 533 W/m2
Compliments of Weather Underground - 3.25 mb